sensor_id;sensor_type;location;lat;lon;timestamp;pressure;altitude;pressure_sealevel;temperature;humidity
69247;BME280;56358;56.328;43.992;2023-05-03T00:00:16;101230.50;;;7.83;73.17
69247;BME280;56358;56.328;43.992;2023-05-03T00:02:17;101226.97;;;7.83;73.13
69247;BME280;56358;56.328;43.992;2023-05-03T00:04:17;101220.78;;;7.82;73.35
69247;BME280;56358;56.328;43.992;2023-05-03T00:06:18;101234.28;;;7.79;73.02
69247;BME280;56358;56.328;43.992;2023-05-03T00:08:19;101220.84;;;7.81;73.07
69247;BME280;56358;56.328;43.992;2023-05-03T00:10:21;101222.50;;;7.83;73.37
69247;BME280;56358;56.328;43.992;2023-05-03T00:12:22;101236.53;;;7.87;73.19
69247;BME280;56358;56.328;43.992;2023-05-03T00:14:22;101214.41;;;7.85;73.20
69247;BME280;56358;56.328;43.992;2023-05-03T00:16:23;101224.41;;;7.81;73.30
69247;BME280;56358;56.328;43.992;2023-05-03T00:18:24;101218.72;;;7.87;73.34
69247;BME280;56358;56.328;43.992;2023-05-03T00:20:25;101211.66;;;7.86;73.46
69247;BME280;56358;56.328;43.992;2023-05-03T00:22:26;101211.59;;;7.88;73.05
69247;BME280;56358;56.328;43.992;2023-05-03T00:24:26;101076.28;;;7.07;73.31
69247;BME280;56358;56.328;43.992;2023-05-03T00:26:27;101077.78;;;7.13;73.52
69247;BME280;56358;56.328;43.992;2023-05-03T00:28:28;101179.34;;;7.75;73.63
69247;BME280;56358;56.328;43.992;2023-05-03T00:30:28;101182.53;;;7.82;73.83
69247;BME280;56358;56.328;43.992;2023-05-03T00:32:29;101200.72;;;7.91;74.65
69247;BME280;56358;56.328;43.992;2023-05-03T00:34:30;101138.63;;;7.55;74.45
69247;BME280;56358;56.328;43.992;2023-05-03T00:36:30;101200.63;;;7.93;75.42
69247;BME280;56358;56.328;43.992;2023-05-03T00:38:31;101202.47;;;7.92;75.68
69247;BME280;56358;56.328;43.992;2023-05-03T00:40:32;101192.81;;;7.89;75.80
69247;BME280;56358;56.328;43.992;2023-05-03T00:42:34;101195.19;;;7.94;75.93
69247;BME280;56358;56.328;43.992;2023-05-03T00:44:38;101196.09;;;7.95;76.55
69247;BME280;56358;56.328;43.992;2023-05-03T00:46:39;101177.19;;;7.82;76.70
69247;BME280;56358;56.328;43.992;2023-05-03T00:48:40;101187.97;;;7.96;76.68
69247;BME280;56358;56.328;43.992;2023-05-03T00:50:41;101184.97;;;7.86;77.54
69247;BME280;56358;56.328;43.992;2023-05-03T00:52:41;101206.06;;;7.91;77.71
69247;BME280;56358;56.328;43.992;2023-05-03T00:54:43;101198.31;;;7.86;77.78
69247;BME280;56358;56.328;43.992;2023-05-03T00:56:43;101179.53;;;7.72;77.81
69247;BME280;56358;56.328;43.992;2023-05-03T00:58:44;101198.72;;;7.79;77.77
69247;BME280;56358;56.328;43.992;2023-05-03T01:00:46;101202.66;;;7.71;77.86
69247;BME280;56358;56.328;43.992;2023-05-03T01:02:47;101210.84;;;7.68;78.07
69247;BME280;56358;56.328;43.992;2023-05-03T01:04:48;101205.06;;;7.60;77.51
69247;BME280;56358;56.328;43.992;2023-05-03T01:09:29;101209.25;;;7.48;77.26
69247;BME280;56358;56.328;43.992;2023-05-03T01:12:02;101206.22;;;7.38;77.22
69247;BME280;56358;56.328;43.992;2023-05-03T01:18:18;101209.69;;;7.23;77.08
69247;BME280;56358;56.328;43.992;2023-05-03T01:20:22;101209.00;;;7.19;77.10
69247;BME280;56358;56.328;43.992;2023-05-03T01:22:41;101205.72;;;7.14;77.49
69247;BME280;56358;56.328;43.992;2023-05-03T01:24:50;101186.16;;;6.96;78.07
69247;BME280;56358;56.328;43.992;2023-05-03T01:26:54;101207.03;;;7.05;78.15
69247;BME280;56358;56.328;43.992;2023-05-03T01:28:55;101144.88;;;6.70;78.47
69247;BME280;56358;56.328;43.992;2023-05-03T01:30:57;101199.19;;;7.02;78.65
69247;BME280;56358;56.328;43.992;2023-05-03T01:33:22;101210.88;;;7.00;79.28
69247;BME280;56358;56.328;43.992;2023-05-03T01:37:42;101203.69;;;7.02;79.16
69247;BME280;56358;56.328;43.992;2023-05-03T01:39:57;101195.06;;;6.97;78.97
69247;BME280;56358;56.328;43.992;2023-05-03T01:41:59;101211.44;;;7.07;78.97
69247;BME280;56358;56.328;43.992;2023-05-03T01:44:02;101114.63;;;6.53;78.80
69247;BME280;56358;56.328;43.992;2023-05-03T01:46:03;101198.72;;;7.12;78.60
69247;BME280;56358;56.328;43.992;2023-05-03T01:48:15;101149.03;;;6.76;78.70
69247;BME280;56358;56.328;43.992;2023-05-03T01:50:16;101179.06;;;6.97;78.39
69247;BME280;56358;56.328;43.992;2023-05-03T01:52:17;101210.97;;;7.16;78.89
69247;BME280;56358;56.328;43.992;2023-05-03T01:54:18;101196.16;;;7.10;78.68
69247;BME280;56358;56.328;43.992;2023-05-03T01:56:19;101210.69;;;7.20;78.68
69247;BME280;56358;56.328;43.992;2023-05-03T01:58:20;101128.72;;;6.73;79.13
69247;BME280;56358;56.328;43.992;2023-05-03T02:00:21;101204.59;;;7.18;79.10
69247;BME280;56358;56.328;43.992;2023-05-03T02:02:22;101222.94;;;7.25;78.98
69247;BME280;56358;56.328;43.992;2023-05-03T02:04:23;101204.25;;;7.25;78.43
69247;BME280;56358;56.328;43.992;2023-05-03T02:06:24;101210.22;;;7.30;78.16
69247;BME280;56358;56.328;43.992;2023-05-03T02:08:25;101180.69;;;7.17;77.67
69247;BME280;56358;56.328;43.992;2023-05-03T02:10:26;101214.31;;;7.37;76.90
69247;BME280;56358;56.328;43.992;2023-05-03T02:12:27;101198.97;;;7.41;76.41
69247;BME280;56358;56.328;43.992;2023-05-03T02:14:27;101205.81;;;7.46;75.85
69247;BME280;56358;56.328;43.992;2023-05-03T02:16:28;101191.69;;;7.44;75.05
69247;BME280;56358;56.328;43.992;2023-05-03T02:18:29;101208.84;;;7.56;74.78
69247;BME280;56358;56.328;43.992;2023-05-03T02:20:33;101222.97;;;7.58;74.52
69247;BME280;56358;56.328;43.992;2023-05-03T02:22:37;101194.03;;;7.50;73.91
69247;BME280;56358;56.328;43.992;2023-05-03T02:24:38;101137.00;;;7.19;73.36
69247;BME280;56358;56.328;43.992;2023-05-03T02:26:39;101167.31;;;7.34;73.39
69247;BME280;56358;56.328;43.992;2023-05-03T02:28:40;101175.06;;;7.39;73.19
69247;BME280;56358;56.328;43.992;2023-05-03T02:30:41;101200.00;;;7.55;73.22
69247;BME280;56358;56.328;43.992;2023-05-03T02:32:42;101176.63;;;7.43;73.21
69247;BME280;56358;56.328;43.992;2023-05-03T02:34:47;101215.84;;;7.59;72.95
69247;BME280;56358;56.328;43.992;2023-05-03T02:36:49;101126.56;;;7.15;72.86
69247;BME280;56358;56.328;43.992;2023-05-03T02:38:50;101196.34;;;7.57;72.77
69247;BME280;56358;56.328;43.992;2023-05-03T02:40:50;101190.94;;;7.58;72.49
69247;BME280;56358;56.328;43.992;2023-05-03T02:42:51;101192.56;;;7.61;72.34
69247;BME280;56358;56.328;43.992;2023-05-03T02:44:52;101068.91;;;6.79;71.94
69247;BME280;56358;56.328;43.992;2023-05-03T02:46:52;101188.53;;;7.53;71.94
69247;BME280;56358;56.328;43.992;2023-05-03T02:48:54;101130.63;;;7.22;71.36
69247;BME280;56358;56.328;43.992;2023-05-03T02:50:54;101203.44;;;7.58;71.21
69247;BME280;56358;56.328;43.992;2023-05-03T02:52:55;101182.66;;;7.47;71.14
69247;BME280;56358;56.328;43.992;2023-05-03T02:54:56;101205.34;;;7.55;71.09
69247;BME280;56358;56.328;43.992;2023-05-03T02:56:57;101119.13;;;7.04;70.69
69247;BME280;56358;56.328;43.992;2023-05-03T02:58:57;101190.34;;;7.53;70.91
69247;BME280;56358;56.328;43.992;2023-05-03T03:00:58;101188.44;;;7.55;70.55
69247;BME280;56358;56.328;43.992;2023-05-03T03:02:59;101197.91;;;7.61;70.80
69247;BME280;56358;56.328;43.992;2023-05-03T03:05:00;101205.59;;;7.67;70.65
69247;BME280;56358;56.328;43.992;2023-05-03T03:07:00;101199.06;;;7.72;70.66
69247;BME280;56358;56.328;43.992;2023-05-03T03:09:01;101205.72;;;7.81;70.16
69247;BME280;56358;56.328;43.992;2023-05-03T03:11:04;101207.19;;;7.87;70.38
69247;BME280;56358;56.328;43.992;2023-05-03T03:13:05;101205.75;;;7.97;68.44
69247;BME280;56358;56.328;43.992;2023-05-03T03:15:06;101159.72;;;7.92;67.32
69247;BME280;56358;56.328;43.992;2023-05-03T03:17:07;101195.41;;;8.23;67.04
69247;BME280;56358;56.328;43.992;2023-05-03T03:19:08;101129.94;;;8.00;66.58
69247;BME280;56358;56.328;43.992;2023-05-03T03:21:09;101187.63;;;8.50;66.03
69247;BME280;56358;56.328;43.992;2023-05-03T03:23:10;101185.31;;;8.60;65.65
69247;BME280;56358;56.328;43.992;2023-05-03T03:25:10;101203.28;;;8.72;64.84
69247;BME280;56358;56.328;43.992;2023-05-03T03:27:11;101199.97;;;8.83;64.58
69247;BME280;56358;56.328;43.992;2023-05-03T03:29:12;101210.47;;;8.86;63.83
69247;BME280;56358;56.328;43.992;2023-05-03T03:31:13;101181.00;;;9.02;63.45
69247;BME280;56358;56.328;43.992;2023-05-03T03:33:13;101189.66;;;9.22;62.39
69247;BME280;56358;56.328;43.992;2023-05-03T03:35:15;101193.50;;;9.47;61.11
69247;BME280;56358;56.328;43.992;2023-05-03T03:37:16;101201.31;;;9.64;59.52
69247;BME280;56358;56.328;43.992;2023-05-03T03:39:17;101191.97;;;9.71;58.70
69247;BME280;56358;56.328;43.992;2023-05-03T03:41:18;101057.25;;;9.00;58.72
69247;BME280;56358;56.328;43.992;2023-05-03T03:43:20;101189.66;;;9.80;57.11
69247;BME280;56358;56.328;43.992;2023-05-03T03:45:20;101183.84;;;9.73;56.36
69247;BME280;56358;56.328;43.992;2023-05-03T03:47:21;101189.56;;;9.81;56.99
69247;BME280;56358;56.328;43.992;2023-05-03T03:49:22;101196.66;;;9.82;57.24
69247;BME280;56358;56.328;43.992;2023-05-03T03:51:22;101174.84;;;9.74;57.74
69247;BME280;56358;56.328;43.992;2023-05-03T03:53:23;101188.50;;;9.84;58.29
69247;BME280;56358;56.328;43.992;2023-05-03T03:55:24;101183.81;;;9.87;58.59
69247;BME280;56358;56.328;43.992;2023-05-03T03:57:25;101179.78;;;9.95;58.73
69247;BME280;56358;56.328;43.992;2023-05-03T03:59:29;101146.91;;;9.78;58.51
69247;BME280;56358;56.328;43.992;2023-05-03T04:01:30;101176.81;;;9.99;57.70
69247;BME280;56358;56.328;43.992;2023-05-03T04:03:31;101177.56;;;10.01;56.90
69247;BME280;56358;56.328;43.992;2023-05-03T04:05:31;101177.47;;;10.03;57.04
69247;BME280;56358;56.328;43.992;2023-05-03T04:07:32;101147.75;;;9.93;56.29
69247;BME280;56358;56.328;43.992;2023-05-03T04:09:33;101175.59;;;10.18;56.25
69247;BME280;56358;56.328;43.992;2023-05-03T04:11:34;101170.72;;;10.24;56.51
69247;BME280;56358;56.328;43.992;2023-05-03T04:13:34;101156.47;;;10.24;56.02
69247;BME280;56358;56.328;43.992;2023-05-03T04:15:35;101165.06;;;10.44;55.22
69247;BME280;56358;56.328;43.992;2023-05-03T04:17:36;101170.66;;;10.53;54.43
69247;BME280;56358;56.328;43.992;2023-05-03T04:19:37;101169.06;;;10.64;53.92
69247;BME280;56358;56.328;43.992;2023-05-03T04:21:38;101088.09;;;10.31;50.83
69247;BME280;56358;56.328;43.992;2023-05-03T04:23:38;101157.50;;;10.76;49.72
69247;BME280;56358;56.328;43.992;2023-05-03T04:25:39;101153.44;;;10.83;49.66
69247;BME280;56358;56.328;43.992;2023-05-03T04:27:46;101154.66;;;10.92;48.29
69247;BME280;56358;56.328;43.992;2023-05-03T04:29:47;101158.44;;;11.02;48.35
69247;BME280;56358;56.328;43.992;2023-05-03T04:31:48;101160.25;;;11.15;49.00
69247;BME280;56358;56.328;43.992;2023-05-03T04:33:49;101166.25;;;11.18;48.89
69247;BME280;56358;56.328;43.992;2023-05-03T04:35:50;101170.22;;;11.26;49.20
69247;BME280;56358;56.328;43.992;2023-05-03T04:37:51;101172.69;;;11.29;49.75
69247;BME280;56358;56.328;43.992;2023-05-03T04:39:52;101166.66;;;11.25;49.73
69247;BME280;56358;56.328;43.992;2023-05-03T04:41:53;101170.22;;;11.26;49.10
69247;BME280;56358;56.328;43.992;2023-05-03T04:43:53;101163.97;;;11.25;48.27
69247;BME280;56358;56.328;43.992;2023-05-03T04:45:54;101173.22;;;11.34;47.05
69247;BME280;56358;56.328;43.992;2023-05-03T04:47:56;101172.59;;;11.43;47.93
69247;BME280;56358;56.328;43.992;2023-05-03T04:49:57;101148.13;;;11.35;46.94
69247;BME280;56358;56.328;43.992;2023-05-03T04:51:58;101169.34;;;11.64;47.32
69247;BME280;56358;56.328;43.992;2023-05-03T04:53:58;101174.94;;;11.73;47.43
69247;BME280;56358;56.328;43.992;2023-05-03T04:55:59;101144.09;;;11.66;47.21
69247;BME280;56358;56.328;43.992;2023-05-03T04:58:00;101176.16;;;11.94;48.28
69247;BME280;56358;56.328;43.992;2023-05-03T05:00:01;101110.78;;;11.69;46.92
69247;BME280;56358;56.328;43.992;2023-05-03T05:02:05;101149.22;;;11.95;45.80
69247;BME280;56358;56.328;43.992;2023-05-03T05:04:06;101154.78;;;12.05;45.29
69247;BME280;56358;56.328;43.992;2023-05-03T05:06:06;101130.69;;;12.03;45.73
69247;BME280;56358;56.328;43.992;2023-05-03T05:08:09;101146.56;;;12.19;46.35
69247;BME280;56358;56.328;43.992;2023-05-03T05:10:11;101153.25;;;12.38;45.67
69247;BME280;56358;56.328;43.992;2023-05-03T05:12:12;101152.56;;;12.47;44.48
69247;BME280;56358;56.328;43.992;2023-05-03T05:14:12;101146.56;;;12.55;44.80
69247;BME280;56358;56.328;43.992;2023-05-03T05:16:13;101141.94;;;12.57;45.04
69247;BME280;56358;56.328;43.992;2023-05-03T05:18:15;101146.50;;;12.68;43.84
69247;BME280;56358;56.328;43.992;2023-05-03T05:20:16;101115.44;;;12.64;43.56
69247;BME280;56358;56.328;43.992;2023-05-03T05:22:17;101145.81;;;12.88;43.88
69247;BME280;56358;56.328;43.992;2023-05-03T05:24:19;101145.00;;;12.99;43.05
69247;BME280;56358;56.328;43.992;2023-05-03T05:26:20;101145.63;;;13.03;43.21
69247;BME280;56358;56.328;43.992;2023-05-03T05:28:20;101127.66;;;13.03;43.78
69247;BME280;56358;56.328;43.992;2023-05-03T05:30:21;101139.06;;;13.18;42.25
69247;BME280;56358;56.328;43.992;2023-05-03T05:32:22;101142.25;;;13.23;42.43
69247;BME280;56358;56.328;43.992;2023-05-03T05:34:23;101150.41;;;13.22;42.61
69247;BME280;56358;56.328;43.992;2023-05-03T05:36:24;101135.28;;;13.21;42.80
69247;BME280;56358;56.328;43.992;2023-05-03T05:38:25;101135.00;;;13.24;43.09
69247;BME280;56358;56.328;43.992;2023-05-03T05:40:25;101086.41;;;13.03;42.42
69247;BME280;56358;56.328;43.992;2023-05-03T05:42:26;101077.34;;;12.93;42.87
69247;BME280;56358;56.328;43.992;2023-05-03T05:44:27;101137.09;;;13.32;43.44
69247;BME280;56358;56.328;43.992;2023-05-03T05:46:28;101128.16;;;13.31;42.90
69247;BME280;56358;56.328;43.992;2023-05-03T05:48:28;101145.09;;;13.45;43.16
69247;BME280;56358;56.328;43.992;2023-05-03T05:50:30;101128.22;;;13.43;43.11
69247;BME280;56358;56.328;43.992;2023-05-03T05:52:31;101138.47;;;13.60;42.94
69247;BME280;56358;56.328;43.992;2023-05-03T05:54:31;101139.47;;;13.70;42.11
69247;BME280;56358;56.328;43.992;2023-05-03T05:56:32;101145.22;;;13.77;42.14
69247;BME280;56358;56.328;43.992;2023-05-03T05:58:34;101142.13;;;13.82;42.07
69247;BME280;56358;56.328;43.992;2023-05-03T06:00:36;101143.59;;;13.86;41.84
69247;BME280;56358;56.328;43.992;2023-05-03T06:02:37;101151.69;;;13.97;41.10
69247;BME280;56358;56.328;43.992;2023-05-03T06:04:37;101095.84;;;13.77;41.45
69247;BME280;56358;56.328;43.992;2023-05-03T06:06:38;101147.97;;;14.10;40.71
69247;BME280;56358;56.328;43.992;2023-05-03T06:08:39;101144.66;;;14.17;41.00
69247;BME280;56358;56.328;43.992;2023-05-03T06:10:40;101129.94;;;14.21;39.52
69247;BME280;56358;56.328;43.992;2023-05-03T06:12:41;101118.06;;;14.13;40.16
69247;BME280;56358;56.328;43.992;2023-05-03T06:14:42;101142.25;;;14.35;39.71
69247;BME280;56358;56.328;43.992;2023-05-03T06:16:43;101129.88;;;14.33;38.49
69247;BME280;56358;56.328;43.992;2023-05-03T06:18:44;101151.88;;;14.49;38.17
69247;BME280;56358;56.328;43.992;2023-05-03T06:20:48;101151.63;;;14.52;37.75
69247;BME280;56358;56.328;43.992;2023-05-03T06:22:49;101082.22;;;14.22;37.85
69247;BME280;56358;56.328;43.992;2023-05-03T06:24:50;101149.97;;;14.72;38.39
69247;BME280;56358;56.328;43.992;2023-05-03T06:26:50;101146.97;;;14.87;37.50
69247;BME280;56358;56.328;43.992;2023-05-03T06:28:52;101135.63;;;14.93;36.96
69247;BME280;56358;56.328;43.992;2023-05-03T06:30:53;101137.53;;;15.02;37.25
69247;BME280;56358;56.328;43.992;2023-05-03T06:32:54;101146.81;;;15.09;36.96
69247;BME280;56358;56.328;43.992;2023-05-03T06:34:55;101140.69;;;15.07;35.63
69247;BME280;56358;56.328;43.992;2023-05-03T06:36:58;101151.97;;;15.13;34.46
69247;BME280;56358;56.328;43.992;2023-05-03T06:38:59;101136.75;;;15.12;33.13
69247;BME280;56358;56.328;43.992;2023-05-03T06:41:02;101137.72;;;15.11;32.14
69247;BME280;56358;56.328;43.992;2023-05-03T06:43:03;101132.19;;;15.12;32.63
69247;BME280;56358;56.328;43.992;2023-05-03T06:45:04;101093.97;;;14.86;32.15
69247;BME280;56358;56.328;43.992;2023-05-03T06:47:05;101146.75;;;15.21;33.22
69247;BME280;56358;56.328;43.992;2023-05-03T06:49:06;101143.91;;;15.22;31.49
69247;BME280;56358;56.328;43.992;2023-05-03T06:51:07;101115.22;;;15.00;30.83
69247;BME280;56358;56.328;43.992;2023-05-03T06:53:08;101154.09;;;15.19;30.75
69247;BME280;56358;56.328;43.992;2023-05-03T06:55:09;101077.16;;;14.82;31.19
69247;BME280;56358;56.328;43.992;2023-05-03T06:57:10;101137.19;;;15.17;30.97
69247;BME280;56358;56.328;43.992;2023-05-03T06:59:11;101156.00;;;15.28;31.52
69247;BME280;56358;56.328;43.992;2023-05-03T07:01:12;101097.31;;;14.99;31.20
69247;BME280;56358;56.328;43.992;2023-05-03T07:03:12;101135.81;;;15.22;31.71
69247;BME280;56358;56.328;43.992;2023-05-03T07:05:13;101142.97;;;15.33;32.29
69247;BME280;56358;56.328;43.992;2023-05-03T07:07:14;101147.41;;;15.44;33.08
69247;BME280;56358;56.328;43.992;2023-05-03T07:09:15;101088.72;;;15.15;31.65
69247;BME280;56358;56.328;43.992;2023-05-03T07:11:19;101081.19;;;15.19;31.11
69247;BME280;56358;56.328;43.992;2023-05-03T07:13:23;101144.34;;;15.58;30.68
69247;BME280;56358;56.328;43.992;2023-05-03T07:15:24;101134.22;;;15.51;30.80
69247;BME280;56358;56.328;43.992;2023-05-03T07:17:25;101149.75;;;15.58;31.85
69247;BME280;56358;56.328;43.992;2023-05-03T07:19:26;101163.72;;;15.64;31.69
69247;BME280;56358;56.328;43.992;2023-05-03T07:21:26;101095.53;;;15.40;31.39
69247;BME280;56358;56.328;43.992;2023-05-03T07:23:28;101105.94;;;15.55;31.26
69247;BME280;56358;56.328;43.992;2023-05-03T07:25:29;101137.22;;;15.88;31.01
69247;BME280;56358;56.328;43.992;2023-05-03T07:27:30;101146.50;;;15.96;31.61
69247;BME280;56358;56.328;43.992;2023-05-03T07:29:31;101110.03;;;15.80;31.09
69247;BME280;56358;56.328;43.992;2023-05-03T07:31:32;101133.25;;;15.92;29.81
69247;BME280;56358;56.328;43.992;2023-05-03T07:33:34;101139.97;;;15.98;30.29
69247;BME280;56358;56.328;43.992;2023-05-03T07:35:36;101147.00;;;15.80;30.51
69247;BME280;56358;56.328;43.992;2023-05-03T07:37:37;101150.50;;;15.91;30.18
69247;BME280;56358;56.328;43.992;2023-05-03T07:39:38;101147.94;;;15.90;30.09
69247;BME280;56358;56.328;43.992;2023-05-03T07:41:39;101152.06;;;15.94;30.32
69247;BME280;56358;56.328;43.992;2023-05-03T07:43:40;101154.94;;;16.02;29.56
69247;BME280;56358;56.328;43.992;2023-05-03T07:45:41;101077.13;;;15.75;29.29
69247;BME280;56358;56.328;43.992;2023-05-03T07:47:41;101076.06;;;15.87;29.33
69247;BME280;56358;56.328;43.992;2023-05-03T07:49:42;101126.06;;;16.22;28.93
69247;BME280;56358;56.328;43.992;2023-05-03T07:51:43;101156.94;;;16.30;28.93
69247;BME280;56358;56.328;43.992;2023-05-03T07:53:44;101121.19;;;16.26;29.15
69247;BME280;56358;56.328;43.992;2023-05-03T07:55:44;101119.22;;;16.28;28.94
69247;BME280;56358;56.328;43.992;2023-05-03T07:57:45;101124.63;;;16.28;28.54
69247;BME280;56358;56.328;43.992;2023-05-03T07:59:46;101125.38;;;16.30;29.41
69247;BME280;56358;56.328;43.992;2023-05-03T08:01:47;101124.78;;;16.36;29.20
69247;BME280;56358;56.328;43.992;2023-05-03T08:03:48;101124.78;;;16.36;28.80
69247;BME280;56358;56.328;43.992;2023-05-03T08:05:51;101122.50;;;16.41;29.44
69247;BME280;56358;56.328;43.992;2023-05-03T08:07:52;101116.25;;;16.51;29.50
69247;BME280;56358;56.328;43.992;2023-05-03T08:09:53;101117.22;;;16.59;29.30
69247;BME280;56358;56.328;43.992;2023-05-03T08:11:54;101095.44;;;16.61;29.20
69247;BME280;56358;56.328;43.992;2023-05-03T08:13:56;101103.56;;;16.61;28.81
69247;BME280;56358;56.328;43.992;2023-05-03T08:15:57;101104.41;;;16.62;29.16
69247;BME280;56358;56.328;43.992;2023-05-03T08:17:58;101110.66;;;16.72;29.53
69247;BME280;56358;56.328;43.992;2023-05-03T08:19:59;101094.28;;;16.73;29.40
69247;BME280;56358;56.328;43.992;2023-05-03T08:21:59;101087.56;;;16.78;28.68
69247;BME280;56358;56.328;43.992;2023-05-03T08:24:00;101090.00;;;16.90;29.11
69247;BME280;56358;56.328;43.992;2023-05-03T08:26:01;101016.53;;;16.56;28.92
69247;BME280;56358;56.328;43.992;2023-05-03T08:28:03;100983.19;;;16.46;28.71
69247;BME280;56358;56.328;43.992;2023-05-03T08:30:05;101032.97;;;16.82;28.96
69247;BME280;56358;56.328;43.992;2023-05-03T08:32:07;101097.13;;;17.29;29.12
69247;BME280;56358;56.328;43.992;2023-05-03T08:34:08;101097.28;;;17.28;28.68
69247;BME280;56358;56.328;43.992;2023-05-03T08:36:10;101040.25;;;16.91;28.58
69247;BME280;56358;56.328;43.992;2023-05-03T08:38:11;101075.81;;;17.16;28.21
69247;BME280;56358;56.328;43.992;2023-05-03T08:40:13;101087.16;;;17.30;28.45
69247;BME280;56358;56.328;43.992;2023-05-03T08:42:15;101082.00;;;17.36;28.57
69247;BME280;56358;56.328;43.992;2023-05-03T08:44:20;101080.81;;;17.49;28.66
69247;BME280;56358;56.328;43.992;2023-05-03T08:46:26;101059.13;;;17.49;29.10
69247;BME280;56358;56.328;43.992;2023-05-03T08:48:27;101075.81;;;17.72;29.32
69247;BME280;56358;56.328;43.992;2023-05-03T08:50:28;101075.91;;;17.80;28.58
69247;BME280;56358;56.328;43.992;2023-05-03T08:52:29;101068.88;;;17.87;28.51
69247;BME280;56358;56.328;43.992;2023-05-03T08:54:30;100994.81;;;17.41;28.68
69247;BME280;56358;56.328;43.992;2023-05-03T08:56:33;101069.63;;;17.80;28.41
69247;BME280;56358;56.328;43.992;2023-05-03T08:58:38;101065.06;;;17.80;29.06
69247;BME280;56358;56.328;43.992;2023-05-03T09:00:39;101057.22;;;17.77;28.62
69247;BME280;56358;56.328;43.992;2023-05-03T09:02:44;101055.47;;;17.86;28.17
69247;BME280;56358;56.328;43.992;2023-05-03T09:04:45;101056.63;;;17.83;28.34
69247;BME280;56358;56.328;43.992;2023-05-03T09:06:45;101047.84;;;17.89;28.43
69247;BME280;56358;56.328;43.992;2023-05-03T09:08:46;101001.59;;;17.73;27.82
69247;BME280;56358;56.328;43.992;2023-05-03T09:10:47;101047.69;;;18.01;28.04
69247;BME280;56358;56.328;43.992;2023-05-03T09:12:48;101051.66;;;18.24;28.11
69247;BME280;56358;56.328;43.992;2023-05-03T09:14:48;101056.34;;;18.40;27.95
69247;BME280;56358;56.328;43.992;2023-05-03T09:16:49;101044.53;;;18.50;27.13
69247;BME280;56358;56.328;43.992;2023-05-03T09:19:02;101057.38;;;18.66;27.27
69247;BME280;56358;56.328;43.992;2023-05-03T09:21:04;100998.34;;;18.68;26.94
69247;BME280;56358;56.328;43.992;2023-05-03T09:23:08;101062.28;;;19.41;26.30
69247;BME280;56358;56.328;43.992;2023-05-03T09:25:09;101051.38;;;19.84;26.13
69247;BME280;56358;56.328;43.992;2023-05-03T09:27:18;101029.16;;;20.21;25.11
69247;BME280;56358;56.328;43.992;2023-05-03T09:29:31;101020.94;;;20.63;24.65
69247;BME280;56358;56.328;43.992;2023-05-03T09:31:33;101026.38;;;20.96;24.25
69247;BME280;56358;56.328;43.992;2023-05-03T09:33:34;101012.78;;;21.27;24.25
69247;BME280;56358;56.328;43.992;2023-05-03T09:35:35;101040.44;;;21.64;23.46
69247;BME280;56358;56.328;43.992;2023-05-03T09:37:36;101021.97;;;21.97;23.65
69247;BME280;56358;56.328;43.992;2023-05-03T09:39:40;101034.84;;;22.35;23.04
69247;BME280;56358;56.328;43.992;2023-05-03T09:41:42;101034.19;;;22.71;22.76
69247;BME280;56358;56.328;43.992;2023-05-03T09:43:50;100991.00;;;22.81;22.20
69247;BME280;56358;56.328;43.992;2023-05-03T09:46:10;101026.09;;;23.22;21.37
69247;BME280;56358;56.328;43.992;2023-05-03T09:48:12;101027.13;;;23.51;21.50
69247;BME280;56358;56.328;43.992;2023-05-03T09:50:13;101022.84;;;23.64;21.07
69247;BME280;56358;56.328;43.992;2023-05-03T09:52:13;101019.22;;;23.78;20.81
69247;BME280;56358;56.328;43.992;2023-05-03T09:54:14;101015.28;;;24.02;21.13
69247;BME280;56358;56.328;43.992;2023-05-03T09:56:16;101004.25;;;24.17;21.30
69247;BME280;56358;56.328;43.992;2023-05-03T09:58:21;101022.22;;;24.48;20.31
69247;BME280;56358;56.328;43.992;2023-05-03T10:00:23;100967.00;;;24.23;20.21
69247;BME280;56358;56.328;43.992;2023-05-03T10:02:25;101013.78;;;24.50;19.80
69247;BME280;56358;56.328;43.992;2023-05-03T10:04:27;101017.81;;;24.54;20.29
69247;BME280;56358;56.328;43.992;2023-05-03T10:06:37;101013.69;;;24.86;20.13
69247;BME280;56358;56.328;43.992;2023-05-03T10:08:40;101001.56;;;25.09;19.59
69247;BME280;56358;56.328;43.992;2023-05-03T10:10:43;101013.81;;;25.13;19.26
69247;BME280;56358;56.328;43.992;2023-05-03T10:12:45;101016.44;;;25.28;19.46
69247;BME280;56358;56.328;43.992;2023-05-03T10:14:47;101020.31;;;25.40;19.38
69247;BME280;56358;56.328;43.992;2023-05-03T10:16:52;101020.06;;;25.35;19.47
69247;BME280;56358;56.328;43.992;2023-05-03T10:19:08;101011.47;;;25.58;19.72
69247;BME280;56358;56.328;43.992;2023-05-03T10:21:15;100970.78;;;25.20;19.53
69247;BME280;56358;56.328;43.992;2023-05-03T10:23:18;101014.94;;;25.25;19.60
69247;BME280;56358;56.328;43.992;2023-05-03T10:25:18;101018.13;;;24.94;19.86
69247;BME280;56358;56.328;43.992;2023-05-03T10:27:20;100996.66;;;24.41;20.14
69247;BME280;56358;56.328;43.992;2023-05-03T10:31:47;101023.75;;;23.04;21.21
69247;BME280;56358;56.328;43.992;2023-05-03T10:33:48;101008.72;;;23.45;21.13
69247;BME280;56358;56.328;43.992;2023-05-03T10:35:52;101014.81;;;23.62;21.20
69247;BME280;56358;56.328;43.992;2023-05-03T10:37:54;100980.31;;;24.04;20.56
69247;BME280;56358;56.328;43.992;2023-05-03T10:40:08;100983.06;;;24.26;20.58
69247;BME280;56358;56.328;43.992;2023-05-03T10:42:09;100978.22;;;24.28;20.33